• Join FlightAware (Why Join?)
  • Login
  • US Flag 
11:14PM EDT


 

Airport Tracker/Info


-or-


 

Live Flight TrackerFlight Track Log ✈ RPA3180 ✈ 04-May-2013 ✈ KBNA - KPHL

Flight Track Log - Related Links

Times and Time Zones

All times are in EDT time to prevent confusion due to time zone crossing. See the RPA3180 flight status page for this flight to view local times or setup timezone preferences in your user account.

Time Position Orientation Groundspeed Altitude Reporting Facility
EDT Latitude Longitude Course Direction KTS MPH feet Rate Location/Type
08:50AM 36.1167 -86.6833 64° Northeast 145 167 1,300  Level Nashville TRACON
08:51AM 36.0833 -86.6667 158° South 175 201 2,300 2,580 Climbing Nashville TRACON
08:51AM 36.0500 -86.6333 141° Southeast 205 236 5,500 3,000 Climbing Nashville TRACON
08:52AM 36.1629 -86.2857 76° East  Level FlightAware Approximate
08:53AM 36.1866 -86.1602 80° East  Level FlightAware Approximate
08:53AM 36.1108 -86.4956 61° Northeast 264 304 10,500  Level Memphis Center
08:54AM 36.2122 -86.0362 64° Northeast  Level FlightAware Approximate
08:54AM 36.1375 -86.4094 69° East 258 297 12,700  Level Memphis Center
08:55AM 36.2585 -85.9205 64° Northeast  Level FlightAware Approximate
08:55AM 36.1694 -86.3078 69° East 287 330 14,400  Level Memphis Center
08:56AM 36.1994 -86.2008 71° East 317 365 17,300 2,640 Climbing Memphis Center
08:58AM 36.2544 -86.0217 69° East 341 392 21,600 2,460 Climbing Indianapolis Center
08:59AM 36.2900 -85.9097 68° East 346 398 24,100 2,160 Climbing Indianapolis Center
09:00AM 36.3308 -85.7858 68° East 352 405 26,000 1,740 Climbing Indianapolis Center
09:01AM 36.3711 -85.6706 67° East 362 417 27,700 1,500 Climbing Indianapolis Center
09:02AM 36.4103 -85.5522 68° East 369 425 29,100 1,500 Climbing Indianapolis Center
09:03AM 36.4497 -85.4317 68° East 374 430 30,800 1,620 Climbing Indianapolis Center
09:04AM 36.4897 -85.3111 68° East 376 433 32,500 1,560 Climbing Indianapolis Center
09:05AM 36.5278 -85.1953 68° East 363 418 34,000 1,200 Climbing Indianapolis Center
09:06AM 36.5647 -85.0811 68° East 356 410 35,000 480 Climbing Indianapolis Center
09:07AM 36.6044 -84.9603 68° East 375 432 35,000  Level Indianapolis Center
09:08AM 36.6472 -84.8286 68° East 405 466 35,000  Level Indianapolis Center
09:09AM 36.6917 -84.6947 67° East 416 479 35,000  Level Indianapolis Center
09:10AM 36.7331 -84.5594 69° East 418 481 35,000  Level Indianapolis Center
09:11AM 36.7828 -84.4108 67° East 412 474 35,000  Level Indianapolis Center
09:12AM 36.8261 -84.2756 68° East 415 478 35,000  Level Indianapolis Center
09:13AM 36.8689 -84.1411 68° East 416 479 35,000  Level Indianapolis Center
09:14AM 36.9119 -84.0067 68° East 416 479 35,000  Level Indianapolis Center
09:15AM 36.9533 -83.8731 69° East 413 475 35,000  Level Indianapolis Center
09:16AM 36.9981 -83.7392 67° East 415 478 35,000  Level Indianapolis Center
09:17AM 37.0389 -83.6047 69° East 412 474 35,000  Level Indianapolis Center
09:18AM 37.0867 -83.4503 69° East 403 464 35,000  Level Indianapolis Center
09:19AM 37.1272 -83.3208 69° East 398 458 35,000  Level Indianapolis Center
09:20AM 37.1681 -83.1914 68° East 394 453 35,000  Level Indianapolis Center
09:21AM 37.2083 -83.0608 69° East 398 458 35,000  Level Indianapolis Center
09:22AM 37.2481 -82.9269 70° East 404 465 35,000  Level Indianapolis Center
09:24AM 37.2886 -82.7944 69° East 404 465 35,000  Level Indianapolis Center
09:25AM 37.3292 -82.6628 69° East 402 463 35,000  Level Indianapolis Center
09:26AM 37.3686 -82.5297 70° East 404 465 35,000  Level Indianapolis Center
09:27AM 37.4083 -82.3989 69° East 401 461 35,000  Level Indianapolis Center
09:28AM 37.4472 -82.2672 70° East 400 460 35,000  Level Indianapolis Center
09:29AM 37.4939 -82.1117 69° East 404 465 35,000  Level Indianapolis Center
09:30AM 37.5333 -81.9803 69° East 401 461 35,000  Level Indianapolis Center
09:31AM 37.5719 -81.8469 70° East 403 464 35,000  Level Indianapolis Center
09:32AM 37.6122 -81.7144 69° East 403 464 35,000  Level Indianapolis Center
09:33AM 37.6500 -81.5800 70° East 406 467 35,000  Level Indianapolis Center
09:34AM 37.6906 -81.4358 70° East 406 467 35,000  Level Indianapolis Center
09:35AM 37.7292 -81.3044 70° East 408 470 35,000  Level Indianapolis Center
09:35AM 37.7411 -81.2567 72° East 399 459 35,000  Level Washington Center
09:36AM 37.7789 -81.1200 71° East 399 459 35,000  Level Washington Center
09:37AM 37.7892 -80.9842 84° East 394 453 35,000  Level Washington Center
09:38AM 37.7975 -80.8456 86° East 389 448 35,000  Level Washington Center
09:39AM 37.8050 -80.7172 86° East 389 448 35,000  Level Washington Center
09:40AM 37.8150 -80.5811 85° East 389 448 35,000  Level Washington Center
09:41AM 37.8250 -80.4397 85° East 394 453 35,000  Level Washington Center
09:42AM 37.8328 -80.2983 86° East 394 453 35,000  Level Washington Center
09:43AM 37.8428 -80.1464 85° East 399 459 35,000  Level Washington Center
09:44AM 37.8522 -80.0050 85° East 399 459 35,000 -300 Level Washington Center
09:45AM 37.8614 -79.8636 85° East 404 465 34,500 -1,020 Descending Washington Center
09:46AM 37.8686 -79.7219 86° East 404 465 33,000 -780 Descending Washington Center
09:47AM 37.8797 -79.5778 84° East 404 465 33,000  Level Washington Center
09:48AM 37.8864 -79.4361 87° East 404 465 33,000  Level Washington Center
09:49AM 37.8947 -79.3047 85° East 404 465 33,000  Level Washington Center
09:50AM 37.9033 -79.1578 86° East 404 465 33,000  Level Washington Center
09:51AM 37.9158 -79.0136 84° East 404 465 33,000  Level Washington Center
09:52AM 37.9325 -78.8722 81° East 404 465 33,000  Level Washington Center
09:53AM 37.9489 -78.7281 82° East 404 465 33,000  Level Washington Center
09:54AM 37.9697 -78.5656 81° East 414 476 33,000 -60 Level Washington Center
09:55AM 37.9856 -78.4239 82° East 414 476 32,900 -540 Descending Washington Center
09:56AM 38.0033 -78.2797 81° East 414 476 32,000 -900 Descending Washington Center
09:57AM 38.0186 -78.1539 81° East 414 476 31,200 -900 Descending Washington Center
09:58AM 38.0778 -78.0239 60° Northeast 401 461 30,200 -960 Descending Washington Center
09:59AM 38.1406 -77.8992 57° Northeast 406 467 29,300 -660 Descending Washington Center
10:00AM 38.2014 -77.7769 58° Northeast 406 467 29,000 -180 Descending Washington Center
10:01AM 38.2619 -77.6517 58° Northeast 406 467 29,000  Level Washington Center
10:02AM 38.3244 -77.5264 58° Northeast 411 473 29,000 -600 Level Washington Center
10:03AM 38.3869 -77.4008 58° Northeast 411 473 27,800 -1,500 Descending Washington Center
10:04AM 38.4450 -77.2803 58° Northeast 411 473 26,000 -1,740 Descending Washington Center
10:05AM 38.5028 -77.1650 57° Northeast 400 460 24,300 -1,020 Descending Washington Center
10:06AM 38.5564 -77.0492 59° Northeast 383 441 24,000 -180 Descending Washington Center
10:07AM 38.6119 -76.9386 57° Northeast 378 435 24,000  Level Washington Center
10:08AM 38.6653 -76.8228 59° Northeast 378 435 24,000 -600 Level Washington Center
10:09AM 38.7144 -76.6878 65° Northeast 378 435 22,900 -1,200 Descending Washington Center
10:10AM 38.7406 -76.5658 75° East 368 423 21,700 -1,200 Descending Washington Center
10:11AM 38.7600 -76.4703 75° East 358 412 20,600 -1,440 Descending Washington Center
10:12AM 38.7858 -76.3400 76° East 353 406 18,900 -1,560 Descending Washington Center
10:13AM 38.8094 -76.2231 75° East 347 399 17,600 -1,620 Descending Washington Center
10:14AM 38.8414 -76.1086 70° East 342 394 15,800 -1,380 Descending Washington Center
10:15AM 38.8647 -75.9994 75° East 331 381 14,900 -480 Descending Washington Center
10:16AM 38.8839 -75.8822 78° East 325 374 14,900  Level Washington Center
10:17AM 38.9339 -75.7972 53° Northeast 319 367 14,900 -600 Level Washington Center
10:19AM 39.1000 -75.7333 17° North 313 360 13,200 -1,140 Descending Philadelphia TRACON
10:20AM 39.2000 -75.7000 14° North 311 358 11,600 -1,500 Descending Philadelphia TRACON
10:21AM 39.2667 -75.6500 30° Northeast 286 329 10,100 -840 Descending Philadelphia TRACON
10:22AM 39.3333 -75.6167 21° North 268 308 10,000 -300 Descending Philadelphia TRACON
10:23AM 39.4000 -75.5833 21° North 286 329 9,600 -900 Descending Philadelphia TRACON
10:24AM 39.4833 -75.6167 343° North 279 321 8,200 -1,260 Descending Philadelphia TRACON
10:25AM 39.5500 -75.6833 322° Northwest 287 330 7,000 -1,200 Descending Philadelphia TRACON
10:26AM 39.6167 -75.7333 330° Northwest 249 287 5,800 -1,020 Descending Philadelphia TRACON
10:27AM 39.6667 -75.7500 346° North 237 273 5,100 -900 Descending Philadelphia TRACON
10:28AM 39.7167 -75.7500 360° North 200 230 4,200 -600 Descending Philadelphia TRACON
10:29AM 39.7500 -75.7000 49° Northeast 170 196 4,000 -60 Descending Philadelphia TRACON
10:30AM 39.7833 -75.6500 49° Northeast 169 194 4,100  Climbing Philadelphia TRACON
10:31AM 39.8000 -75.6000 67° East 164 189 4,000 -60 Descending Philadelphia TRACON
10:32AM 39.8167 -75.5333 72° East 166 191 4,000 -360 Level Philadelphia TRACON
10:33AM 39.8167 -75.4833 90° East 166 191 3,300 -900 Descending Philadelphia TRACON
10:34AM 39.8333 -75.4167 72° East 171 197 2,300 -1,020 Descending Philadelphia TRACON